Требуется помощь по Схипхолу.

Mu3aHTPOn

Mu3aHTPOn

URWW/VOG, RWY 11.
У меня друг будет там в воскр., споттер он начинающий, но симер старый и авиацию любит. Просит помочь картой - откуда снимать и размещением сувениров для спотеров.
Kwispel, Fyodor - Ваше слово?)
 
Реклама
Д

Дионисий

Старожил
Mu3aHTPOn, мне, как простому фотографу-любителю и не плайнспоттеру, очень понравилась смотровая площадка.

Часы работы площадки (судя по инфе на сайте аэропорта "Схипхол"):

Зимой: 09.00 - 17.00.
Летом: 07.00 - 20.00.

Winter period (from the last Sunday in October) from 09.00 hours to 17.00 hours.
Summer period (from the last Sunday in March) from 07.00 hours to 20.00 hours.

С остальным уже к Kwispelу, Fyodorу. ;) Лучше, наверное, чиркнуть им в Фотофорум или в ЛС.
 
Последнее редактирование:
Д

Дионисий

Старожил
Mu3aHTPOn, в сайте www.schiphol.com есть о споттинге. Открываете ссылочку, потом жмете на Schiphol Airport, а потом на Airport facilities
и Sightseeing.
 
Kwispel

Kwispel

Летучий галландец
Вот тут тебе все, что только есть: http://www.schipholspotter.com/
Смотровая площадка особо не интересна, если есть возможность подъехать к ВПП и снимать изблизи.
Сам, к сожалению, компанию составить не смогу, потому как буду в эти дни в Германии.

Удачи
 
Mu3aHTPOn

Mu3aHTPOn

URWW/VOG, RWY 11.
еще раз спасибо всем ответившим)
 
Kwispel

Kwispel

Летучий галландец
Не забудь зонтик и якорь: METAR EHAM 121025Z 25033G44KT 9999 FEW027 SCT035 BKN042 08/02 Q0988 TEMPO 26035G50KT 6000 SHRA=